createdAt,value
2019-02-06T00:01:03.415Z,0
2019-02-06T00:05:21.994Z,0
2019-02-06T00:53:27.234Z,0
2019-02-06T00:54:18.772Z,0
2019-02-06T01:02:43.669Z,0
2019-02-06T01:05:40.446Z,0
2019-02-06T01:06:43.830Z,0
2019-02-06T01:12:34.089Z,0
2019-02-06T01:19:17.216Z,0
2019-02-06T01:22:07.487Z,0
2019-02-06T01:31:13.544Z,0
2019-02-06T01:32:06.993Z,0
2019-02-06T01:34:35.233Z,0
2019-02-06T01:35:29.709Z,0
2019-02-06T01:36:18.648Z,0
2019-02-06T01:37:12.039Z,0
2019-02-06T01:38:05.225Z,0
2019-02-06T01:44:19.855Z,0
2019-02-06T01:50:13.725Z,0
2019-02-06T01:51:07.979Z,0
2019-02-06T01:54:05.163Z,0
2019-02-06T01:54:58.326Z,0
2019-02-06T01:55:48.204Z,0
2019-02-06T01:58:49.518Z,0
2019-02-06T01:59:43.602Z,0
2019-02-06T02:00:35.110Z,0
2019-02-06T02:01:30.248Z,0
2019-02-06T02:02:18.810Z,0
2019-02-06T02:03:06.790Z,0
2019-02-06T02:03:53.809Z,0
2019-02-06T02:04:35.147Z,0
2019-02-06T02:05:22.465Z,0
2019-02-06T02:15:36.913Z,0
2019-02-06T02:16:32.062Z,0
2019-02-06T02:17:24.317Z,0
2019-02-06T02:21:25.779Z,0
2019-02-06T02:22:17.915Z,0
2019-02-06T02:23:08.373Z,0
2019-02-06T02:23:56.627Z,0
2019-02-06T02:24:44.834Z,0
2019-02-06T02:25:38.047Z,0
2019-02-06T02:26:26.810Z,0
2019-02-06T02:27:15.661Z,0
2019-02-06T02:28:07.868Z,0
2019-02-06T02:28:57.238Z,0
2019-02-06T02:29:51.531Z,0
2019-02-06T02:42:48.414Z,0
2019-02-06T02:47:05.908Z,0
2019-02-06T02:48:00.161Z,0
2019-02-06T02:48:50.466Z,0
2019-02-06T02:49:41.198Z,0
2019-02-06T02:50:30.463Z,0
2019-02-06T02:51:28.219Z,0
2019-02-06T02:54:22.403Z,0
2019-02-06T02:57:35.976Z,0
2019-02-06T02:58:26.708Z,0
2019-02-06T02:59:18.988Z,0
2019-02-06T03:02:07.654Z,0
2019-02-06T03:02:57.786Z,0
2019-02-06T03:03:47.696Z,0
2019-02-06T03:04:34.931Z,0
2019-02-06T03:05:16.722Z,0
2019-02-06T03:05:58.342Z,0
2019-02-06T03:06:40.856Z,0
2019-02-06T03:07:23.096Z,0
2019-02-06T03:08:04.096Z,0
2019-02-06T03:08:44.468Z,0
2019-02-06T03:09:24.865Z,0
2019-02-06T03:10:06.873Z,0
2019-02-06T03:10:47.287Z,0
2019-02-06T03:11:27.703Z,0
2019-02-06T03:12:08.138Z,0
2019-02-06T03:12:48.670Z,0
2019-02-06T03:13:29.289Z,0
2019-02-06T03:14:10.885Z,0
2019-02-06T03:14:50.789Z,0
2019-02-06T03:15:31.757Z,0
2019-02-06T03:16:13.946Z,0
2019-02-06T03:16:54.464Z,0
2019-02-06T03:17:36.358Z,0
2019-02-06T03:18:16.908Z,0
2019-02-06T03:18:58.031Z,0
2019-02-06T03:19:38.398Z,0
2019-02-06T03:20:21.351Z,0
2019-02-06T03:21:01.752Z,0
2019-02-06T03:21:44.746Z,0
2019-02-06T03:22:25.164Z,0
2019-02-06T03:23:07.118Z,0
2019-02-06T03:23:47.787Z,0
2019-02-06T03:24:28.661Z,0
2019-02-06T03:25:09.223Z,0
2019-02-06T03:25:49.744Z,0
2019-02-06T03:26:30.158Z,0
2019-02-06T03:27:10.833Z,0
2019-02-06T03:27:51.483Z,0
2019-02-06T03:28:32.561Z,0
2019-02-06T03:29:13.421Z,0
2019-02-06T03:29:54.641Z,0
2019-02-06T03:30:36.294Z,0
2019-02-06T03:31:18.513Z,0
2019-02-06T03:31:59.186Z,0
2019-02-06T03:32:44.262Z,0
2019-02-06T03:33:24.800Z,0
2019-02-06T03:34:06.686Z,0
2019-02-06T03:34:51.448Z,0
2019-02-06T03:35:33.878Z,0
2019-02-06T03:36:14.275Z,0
2019-02-06T03:36:55.450Z,0
2019-02-06T03:37:35.899Z,0
2019-02-06T03:38:18.639Z,0
2019-02-06T03:38:58.565Z,0
2019-02-06T03:39:39.015Z,0
2019-02-06T03:40:19.569Z,0
2019-02-06T03:40:59.910Z,0
2019-02-06T03:41:40.368Z,0
2019-02-06T03:42:20.805Z,0
2019-02-06T03:43:01.212Z,0
2019-02-06T03:43:42.892Z,0
2019-02-06T03:44:23.335Z,0
2019-02-06T03:45:03.567Z,0
2019-02-06T03:45:44.026Z,0
2019-02-06T03:46:24.401Z,0
2019-02-06T03:47:05.716Z,0
2019-02-06T03:47:46.129Z,0
2019-02-06T03:48:26.357Z,0
2019-02-06T03:49:06.717Z,0
2019-02-06T03:49:47.109Z,0
2019-02-06T03:50:29.132Z,0
2019-02-06T03:51:09.485Z,0
2019-02-06T03:51:49.890Z,0
2019-02-06T03:52:30.506Z,0
2019-02-06T03:53:11.020Z,0
2019-02-06T03:53:51.556Z,0
2019-02-06T03:54:31.853Z,0
2019-02-06T03:55:12.279Z,0
2019-02-06T03:58:06.433Z,0
2019-02-06T04:02:41.679Z,0
2019-02-06T04:03:28.556Z,0
2019-02-06T04:04:08.920Z,0
2019-02-06T04:04:56.801Z,0
2019-02-06T04:05:38.288Z,0
2019-02-06T04:06:23.613Z,0
2019-02-06T04:07:11.417Z,0
2019-02-06T04:07:54.340Z,0
2019-02-06T04:08:35.423Z,0
2019-02-06T04:09:23.804Z,0
2019-02-06T04:10:14.802Z,0
2019-02-06T04:26:35.981Z,0
2019-02-06T05:08:27.044Z,0
2019-02-06T05:09:23.546Z,0
2019-02-06T05:10:03.881Z,0
2019-02-06T05:10:44.242Z,0
2019-02-06T05:11:24.676Z,0
2019-02-06T05:12:05.057Z,0
2019-02-06T05:12:45.463Z,0
2019-02-06T05:13:25.852Z,0
2019-02-06T05:14:06.279Z,0
2019-02-06T05:14:46.693Z,0
2019-02-06T05:15:27.371Z,0
2019-02-06T05:16:07.984Z,0
2019-02-06T05:16:49.161Z,0
2019-02-06T05:17:32.254Z,0
2019-02-06T05:18:12.475Z,0
2019-02-06T05:18:55.497Z,0
2019-02-06T05:19:37.523Z,0
2019-02-06T05:20:17.670Z,0
2019-02-06T05:20:58.584Z,0
2019-02-06T05:21:39.654Z,0
2019-02-06T05:22:19.996Z,0
2019-02-06T05:23:03.936Z,0
2019-02-06T05:23:46.989Z,0
2019-02-06T05:24:28.692Z,0
2019-02-06T05:25:09.410Z,0
2019-02-06T05:25:49.937Z,0
2019-02-06T05:26:31.141Z,0
2019-02-06T05:27:11.517Z,0
2019-02-06T05:27:54.270Z,0
2019-02-06T05:28:34.563Z,0
2019-02-06T05:29:16.703Z,0
2019-02-06T05:29:57.488Z,0
2019-02-06T05:30:37.954Z,0
2019-02-06T05:31:20.077Z,0
2019-02-06T05:32:02.974Z,0
2019-02-06T05:32:46.873Z,0
2019-02-06T05:33:28.931Z,0
2019-02-06T05:34:10.774Z,0
2019-02-06T05:34:52.442Z,0
2019-02-06T05:35:35.938Z,0
2019-02-06T05:36:16.318Z,0
2019-02-06T05:36:59.838Z,0
2019-02-06T05:37:42.498Z,0
2019-02-06T05:38:22.951Z,0
2019-02-06T05:39:04.495Z,0
2019-02-06T05:39:45.705Z,0
2019-02-06T05:40:26.166Z,0
2019-02-06T05:41:06.459Z,0
2019-02-06T05:41:48.558Z,0
2019-02-06T05:50:33.495Z,0
2019-02-06T05:54:00.526Z,0
2019-02-06T05:54:56.626Z,0
2019-02-06T05:55:49.086Z,0
2019-02-06T05:56:42.609Z,0
2019-02-06T05:57:36.979Z,0
2019-02-06T05:58:36.012Z,0
2019-02-06T05:59:35.864Z,0
2019-02-06T06:00:29.875Z,0
2019-02-06T06:01:22.521Z,0
2019-02-06T06:02:18.855Z,0
2019-02-06T06:03:14.329Z,0
2019-02-06T06:04:10.348Z,0
2019-02-06T06:05:06.322Z,0
2019-02-06T06:05:58.479Z,0
2019-02-06T06:06:53.781Z,0
2019-02-06T06:07:52.934Z,0
2019-02-06T06:08:45.210Z,0
2019-02-06T06:09:38.941Z,0
2019-02-06T06:10:34.103Z,0
2019-02-06T06:11:30.143Z,0
2019-02-06T06:12:23.038Z,0
2019-02-06T06:13:18.726Z,0
2019-02-06T06:14:12.791Z,0
2019-02-06T06:15:08.730Z,0
2019-02-06T06:16:08.928Z,0
2019-02-06T06:17:04.269Z,0
2019-02-06T06:17:59.430Z,0
2019-02-06T06:19:00.805Z,0
2019-02-06T06:19:58.000Z,0
2019-02-06T06:20:52.101Z,0
2019-02-06T06:21:47.389Z,0
2019-02-06T06:22:41.821Z,0
2019-02-06T06:23:43.707Z,0
2019-02-06T06:24:38.859Z,0
2019-02-06T06:25:32.237Z,0
2019-02-06T06:26:27.155Z,0
2019-02-06T06:31:15.542Z,0
2019-02-06T06:32:09.663Z,0
2019-02-06T06:33:03.383Z,0
2019-02-06T06:33:57.797Z,0
2019-02-06T06:34:52.445Z,0
2019-02-06T06:35:51.204Z,0
2019-02-06T06:36:47.441Z,0
2019-02-06T06:37:41.467Z,0
2019-02-06T06:38:35.507Z,0
2019-02-06T06:39:28.587Z,0
2019-02-06T06:40:22.098Z,0
2019-02-06T06:41:17.403Z,0
2019-02-06T06:42:14.065Z,0
2019-02-06T06:43:18.535Z,0
2019-02-06T06:44:13.990Z,0
2019-02-06T06:45:06.980Z,0
2019-02-06T06:46:04.106Z,0
2019-02-06T06:47:03.820Z,0
2019-02-06T06:48:12.874Z,0
2019-02-06T06:49:22.659Z,0
2019-02-06T06:50:15.455Z,0
2019-02-06T06:51:17.191Z,0
2019-02-06T06:52:14.954Z,0
2019-02-06T06:53:09.261Z,0
2019-02-06T06:54:02.337Z,0
2019-02-06T06:55:04.040Z,0
2019-02-06T06:56:02.829Z,0
2019-02-06T06:57:16.269Z,0
2019-02-06T07:49:15.929Z,15
2019-02-06T11:54:29.707Z,45
2019-02-06T11:55:35.032Z,55
2019-02-06T11:56:20.868Z,60
2019-02-06T11:57:10.828Z,55
2019-02-06T11:57:59.373Z,50
2019-02-06T12:10:36.685Z,50
2019-02-06T12:11:20.874Z,55
2019-02-06T12:12:04.658Z,55
2019-02-06T12:12:51.122Z,55
2019-02-06T12:13:32.259Z,55
2019-02-06T12:14:14.951Z,55
2019-02-06T12:14:59.126Z,55
2019-02-06T12:15:42.868Z,55
2019-02-06T12:24:24.652Z,45
2019-02-06T12:25:07.530Z,40
2019-02-06T12:29:59.405Z,35
2019-02-06T12:39:54.132Z,30
2019-02-06T12:40:58.711Z,30
2019-02-06T12:41:36.714Z,30
2019-02-06T12:42:22.436Z,30
2019-02-06T12:43:10.284Z,30
2019-02-06T12:43:49.442Z,30
2019-02-06T12:44:30.938Z,30
2019-02-06T12:45:13.108Z,30
2019-02-06T12:45:55.654Z,30
2019-02-06T12:46:42.900Z,30
2019-02-06T12:47:26.747Z,30
2019-02-06T12:48:13.622Z,30
2019-02-06T12:48:58.807Z,30
2019-02-06T12:49:42.093Z,30
2019-02-06T12:50:23.358Z,30
2019-02-06T12:51:05.519Z,30
2019-02-06T14:52:59.796Z,10
2019-02-06T15:03:34.862Z,10
2019-02-06T15:04:19.393Z,10
2019-02-06T15:10:15.588Z,20
2019-02-06T15:11:19.485Z,20
2019-02-06T15:12:04.624Z,15
2019-02-06T15:12:48.762Z,20
2019-02-06T15:18:27.017Z,15
2019-02-06T15:19:08.727Z,15
2019-02-06T15:19:55.085Z,15
2019-02-06T15:20:49.431Z,15
2019-02-06T15:21:33.504Z,15
2019-02-06T15:22:16.358Z,15
2019-02-06T15:23:00.341Z,15
2019-02-06T15:23:48.361Z,15
2019-02-06T15:24:31.948Z,15
2019-02-06T15:25:15.973Z,15
2019-02-06T15:25:57.552Z,15
2019-02-06T15:26:40.431Z,10
2019-02-06T15:27:21.004Z,10
2019-02-06T15:28:05.049Z,10
2019-02-06T15:28:56.930Z,15
2019-02-06T15:29:44.001Z,25
2019-02-06T15:30:36.345Z,20
2019-02-06T15:31:23.426Z,10
2019-02-06T15:32:05.546Z,10
2019-02-06T15:32:47.672Z,10
2019-02-06T15:33:33.507Z,10
2019-02-06T15:34:15.550Z,5
2019-02-06T15:34:57.374Z,5
2019-02-06T15:35:39.823Z,5
2019-02-06T15:36:22.461Z,5
2019-02-06T15:37:18.043Z,5
2019-02-06T15:38:01.386Z,5
2019-02-06T15:38:44.646Z,5
2019-02-06T15:39:28.931Z,5
2019-02-06T15:40:17.388Z,5
2019-02-06T15:40:57.783Z,5
2019-02-06T15:41:42.266Z,10
2019-02-06T15:42:28.467Z,10
2019-02-06T15:43:24.634Z,5
2019-02-06T15:44:06.956Z,5
2019-02-06T15:45:08.872Z,5
2019-02-06T17:45:28.756Z,0
2019-02-06T17:46:30.063Z,0
2019-02-06T17:51:20.959Z,0
2019-02-06T17:52:25.860Z,0
2019-02-06T17:53:21.601Z,0
2019-02-06T17:54:25.496Z,0
2019-02-06T17:55:25.248Z,0
2019-02-06T17:56:30.592Z,0
2019-02-06T17:57:27.780Z,0
2019-02-06T17:58:27.333Z,0
2019-02-06T18:02:08.604Z,0
2019-02-06T18:03:09.189Z,0
2019-02-06T18:04:07.428Z,0
2019-02-06T18:05:02.942Z,0
2019-02-06T18:05:58.299Z,0
2019-02-06T18:06:59.757Z,0
2019-02-06T18:07:54.980Z,0
2019-02-06T18:08:56.998Z,0
2019-02-06T18:11:27.784Z,0
2019-02-06T18:12:26.250Z,0
2019-02-06T18:13:16.266Z,0
2019-02-06T18:14:11.833Z,0
2019-02-06T18:15:04.588Z,0
2019-02-06T18:15:56.986Z,0
2019-02-06T18:16:49.780Z,0
2019-02-06T18:17:44.110Z,0
2019-02-06T18:18:37.509Z,0
2019-02-06T18:19:37.776Z,0
2019-02-06T18:20:32.294Z,0
2019-02-06T18:21:26.883Z,0
2019-02-06T18:22:43.888Z,0
2019-02-06T18:23:38.048Z,0
2019-02-06T18:30:31.739Z,0
2019-02-06T19:19:25.865Z,0
2019-02-06T19:41:03.681Z,0
2019-02-06T19:54:56.391Z,0
2019-02-06T19:56:00.372Z,0
2019-02-06T20:15:06.592Z,0
2019-02-06T20:15:50.703Z,0
2019-02-06T20:16:36.501Z,0
2019-02-06T20:17:36.528Z,0
2019-02-06T20:18:18.898Z,0
2019-02-06T20:19:02.829Z,0
2019-02-06T20:19:49.178Z,0
2019-02-06T20:20:35.483Z,0
2019-02-06T20:21:25.132Z,0
2019-02-06T20:22:10.271Z,0
2019-02-06T20:22:53.025Z,0
2019-02-06T20:23:36.423Z,0
2019-02-06T20:24:37.344Z,0
2019-02-06T20:25:21.439Z,0
2019-02-06T20:26:05.767Z,0
2019-02-06T20:26:47.750Z,0
2019-02-06T20:27:28.083Z,0
2019-02-06T20:28:11.632Z,0
2019-02-06T20:28:59.519Z,0
2019-02-06T20:29:48.044Z,0
2019-02-06T20:46:02.519Z,0
2019-02-06T20:46:55.874Z,0
2019-02-06T20:52:58.752Z,0
2019-02-06T20:55:41.855Z,0
2019-02-06T21:14:53.756Z,0
2019-02-06T21:20:39.152Z,0
2019-02-06T21:21:33.860Z,0
2019-02-06T21:24:06.805Z,0
2019-02-06T21:24:47.150Z,0
2019-02-06T21:25:27.707Z,0
2019-02-06T21:26:08.041Z,0
2019-02-06T21:26:51.351Z,0
2019-02-06T21:29:38.977Z,0
2019-02-06T21:32:18.189Z,0
2019-02-06T21:33:10.646Z,0
2019-02-06T21:34:05.703Z,0
2019-02-06T21:36:54.729Z,0
2019-02-06T21:37:44.290Z,0
2019-02-06T21:38:31.121Z,0
2019-02-06T21:39:11.906Z,0
2019-02-06T21:40:04.137Z,0
2019-02-06T21:40:45.215Z,0
2019-02-06T21:41:27.774Z,0
2019-02-06T21:42:09.362Z,0
2019-02-06T21:42:49.664Z,0
2019-02-06T21:43:31.189Z,0
2019-02-06T21:44:13.469Z,0
2019-02-06T21:44:53.659Z,0
2019-02-06T21:45:35.338Z,0
2019-02-06T21:46:16.040Z,0
2019-02-06T21:46:57.076Z,0
2019-02-06T21:47:44.685Z,0
2019-02-06T21:48:32.197Z,0
2019-02-06T21:49:12.490Z,0
2019-02-06T21:49:54.360Z,0
2019-02-06T21:50:35.786Z,0
2019-02-06T21:51:16.677Z,0
2019-02-06T21:51:57.919Z,0
2019-02-06T21:52:38.212Z,0
2019-02-06T21:53:21.386Z,0
2019-02-06T21:54:05.002Z,0
2019-02-06T21:54:45.296Z,0
2019-02-06T21:55:26.804Z,0
2019-02-06T21:56:07.253Z,0
2019-02-06T21:56:52.283Z,0
2019-02-06T21:57:39.562Z,0
2019-02-06T21:58:19.212Z,0
2019-02-06T21:59:01.341Z,0
2019-02-06T21:59:43.128Z,0
2019-02-06T22:00:23.723Z,0
2019-02-06T22:13:17.400Z,0
2019-02-06T22:16:24.955Z,0
2019-02-06T23:06:18.790Z,0
2019-02-06T23:07:08.726Z,0
2019-02-06T23:07:56.082Z,0
2019-02-06T23:08:44.492Z,0
2019-02-06T23:09:35.535Z,0
2019-02-06T23:15:20.013Z,0
2019-02-06T23:16:14.355Z,0
2019-02-06T23:17:13.948Z,0
2019-02-06T23:18:08.008Z,0
2019-02-06T23:19:04.328Z,0
2019-02-06T23:20:14.882Z,0
2019-02-06T23:25:40.145Z,0
2019-02-06T23:26:35.647Z,0
2019-02-06T23:27:29.052Z,0
2019-02-06T23:30:54.353Z,0
2019-02-06T23:31:47.186Z,0
2019-02-06T23:39:19.084Z,0
2019-02-06T23:42:16.344Z,0
2019-02-06T23:43:04.952Z,0
2019-02-06T23:43:55.929Z,0
2019-02-06T23:44:46.022Z,0
2019-02-06T23:45:38.766Z,0
2019-02-06T23:46:27.486Z,0
2019-02-06T23:47:14.723Z,0
2019-02-06T23:48:03.022Z,0
2019-02-06T23:48:57.614Z,0
2019-02-06T23:51:42.833Z,0
2019-02-06T23:52:42.048Z,0
2019-02-06T23:53:36.039Z,0
2019-02-06T23:56:41.672Z,0
